Pagrindinis puslapis
METAR-TAF:

METAR-TAF

Oro uostai :

Erebru, Švedija

platuma: 59-14N, ilguma: 015-03E, Aukštis: 57 m

Dabartinis oras

Ataskaita buvo paskelbta 31 minutes, ne 05:20 UTC
Vėjas 5 kt iš Vakarų
Temperatūra 3°C
Drėgmė 56%
Slėgis 1024 hPa
Matomumas 10 km arba daugiau

METAR: ESOE 100520Z AUTO 28005KT 9999 R01///// R19///// SCT120/// 03/M05 Q1024

Laikas: 07:51 (05:51 UTC)

Prognozė

Ataskaita buvo paskelbta 21 minutes, ne 05:30 UTC
Prognozė galioja nuo 10 metu 06 UTC su 10 metu 08 UTC
Vėjas 8 kt iš Šiaurės Vakarų
Matomumas 10 km arba daugiau
nėra debesų žemiau 1500 m ir nėra kamuolinių lietaus debesų

TAF: ESOE 100530Z 1006/1008 31008KT CAVOK

Orai ataskaitas ir orų prognozės (METAR, TAF).

turimą stotys yra geltonos ir raudonos taškus žemėlapyje.

Perkelti pele per norėdami pamatyti stoties vardą.

Tada spustelėkite, norėdami matyti oro stebėjimo ir prognozės.

Norėdami pakeisti žemėlapį: spustelėkite ant žalios mygtukų su juodo kryžiaus žemyn,; žalią mygtuką su brūkšneliu, jei norite nutolinti; arba žalių rodyklių gretimoms žemėlapius.


METAR-TAF: